Reese, Texas
Current Conditions -  °F | °C
As of 2:15 AM on Monday 22 Dec 2014 (Local Time) from KJSO Reporting Station
Haze Haze  
Wind Chill: 51°   Ceiling: 600
Heat Index: 51°   Visibility: 5mi
Dew Point: 50°   Wind: 10mph
Humidity: 95%   Direction: 180°S
Pressure: 29.78"   Gusts: 21mph
Location:  31.9649°N, 95.3036°W
Report Text: KJSO 220815Z AUTO 18009G18KT 5SM BR OVC006 10/10 A2978 RMK AO2 T01070100
Loading
Personal Weather Stations






























Interactive Weather Map New forecast layout! Learn more

10-Day Weather Forecast

Advertisements
Track Severe Weather on mobile